createdAt,value
2023-02-17T00:04:37.644Z,106
2023-02-17T00:09:54.336Z,106
2023-02-17T00:15:11.375Z,96
2023-02-17T00:20:28.569Z,114
2023-02-17T00:25:44.888Z,117
2023-02-17T00:31:02.044Z,111
2023-02-17T00:36:19.227Z,109
2023-02-17T00:41:35.636Z,98
2023-02-17T00:46:52.972Z,105
2023-02-17T00:52:09.147Z,98
2023-02-17T00:57:25.603Z,105
2023-02-17T01:02:42.660Z,104
2023-02-17T01:07:59.682Z,109
2023-02-17T01:13:15.980Z,99
2023-02-17T01:18:32.266Z,98
2023-02-17T01:23:49.015Z,105
2023-02-17T01:29:05.865Z,103
2023-02-17T01:34:22.153Z,98
2023-02-17T01:39:38.497Z,100
2023-02-17T01:44:55.609Z,98
2023-02-17T01:50:12.695Z,100
2023-02-17T01:55:30.895Z,99
2023-02-17T02:00:46.310Z,103
2023-02-17T02:06:02.960Z,104
2023-02-17T02:11:18.918Z,103
2023-02-17T02:16:35.250Z,108
2023-02-17T02:21:52.065Z,101
2023-02-17T02:27:08.585Z,100
2023-02-17T02:32:25.631Z,100
2023-02-17T02:37:43.000Z,102
2023-02-17T02:42:59.255Z,102
2023-02-17T02:48:16.286Z,100
2023-02-17T02:53:33.308Z,99
2023-02-17T02:58:50.162Z,99
2023-02-17T03:04:07.368Z,97
2023-02-17T03:09:24.124Z,97
2023-02-17T03:14:40.984Z,92
2023-02-17T03:19:57.601Z,92
2023-02-17T03:25:14.641Z,93
2023-02-17T03:30:31.821Z,90
2023-02-17T03:35:48.035Z,85
2023-02-17T03:41:04.372Z,91
2023-02-17T03:46:21.281Z,85
2023-02-17T03:51:37.703Z,82
2023-02-17T03:56:54.801Z,85
2023-02-17T04:02:11.921Z,89
2023-02-17T04:07:28.833Z,89
2023-02-17T04:12:45.698Z,86
2023-02-17T04:18:02.529Z,90
2023-02-17T04:23:19.614Z,86
2023-02-17T04:28:36.648Z,88
2023-02-17T04:33:53.327Z,83
2023-02-17T04:39:10.152Z,81
2023-02-17T04:44:26.361Z,79
2023-02-17T04:49:43.230Z,85
2023-02-17T04:54:59.945Z,90
2023-02-17T05:00:16.587Z,88
2023-02-17T05:05:33.667Z,86
2023-02-17T05:10:50.519Z,94
2023-02-17T05:16:07.562Z,92
2023-02-17T05:21:23.705Z,97
2023-02-17T05:26:40.819Z,96
2023-02-17T05:31:57.241Z,92
2023-02-17T05:38:14.214Z,98
2023-02-17T05:43:31.160Z,110
2023-02-17T05:48:48.257Z,98
2023-02-17T05:54:05.480Z,97
2023-02-17T05:59:21.875Z,92
2023-02-17T06:04:38.746Z,87
2023-02-17T06:09:55.503Z,89
2023-02-17T06:15:12.231Z,92
2023-02-17T06:20:29.910Z,97
2023-02-17T06:25:48.165Z,94
2023-02-17T06:31:05.382Z,91
2023-02-17T06:36:22.588Z,96
2023-02-17T06:41:39.401Z,90
2023-02-17T06:46:55.663Z,86
2023-02-17T06:52:12.884Z,91
2023-02-17T06:57:29.246Z,96
2023-02-17T07:02:47.331Z,90
2023-02-17T07:08:03.762Z,92
2023-02-17T07:13:21.012Z,94
2023-02-17T07:18:37.234Z,80
2023-02-17T07:23:53.868Z,84
2023-02-17T07:29:10.068Z,81
2023-02-17T07:34:26.641Z,96
2023-02-17T07:39:43.353Z,87
2023-02-17T07:45:00.422Z,88
2023-02-17T07:50:17.501Z,87
2023-02-17T07:55:33.703Z,82
2023-02-17T08:00:50.632Z,85
2023-02-17T08:06:08.133Z,70
2023-02-17T08:11:24.176Z,68
2023-02-17T08:16:41.401Z,70
2023-02-17T08:21:57.668Z,65
2023-02-17T08:27:14.089Z,64
2023-02-17T08:32:30.839Z,68
2023-02-17T08:37:47.870Z,67
2023-02-17T08:43:04.701Z,71
2023-02-17T08:48:21.720Z,73
2023-02-17T08:53:38.379Z,93
2023-02-17T08:58:55.231Z,94
2023-02-17T09:04:12.305Z,89
2023-02-17T09:09:29.401Z,82
2023-02-17T09:14:46.384Z,80
2023-02-17T09:20:06.158Z,84
2023-02-17T09:25:21.241Z,86
2023-02-17T09:30:38.566Z,79
2023-02-17T09:35:54.905Z,75
2023-02-17T09:41:11.099Z,75
2023-02-17T09:46:28.202Z,74
2023-02-17T09:51:45.144Z,70
2023-02-17T09:57:01.433Z,65
2023-02-17T10:02:17.843Z,66
2023-02-17T10:07:34.847Z,70
2023-02-17T10:12:51.504Z,74
2023-02-17T10:18:07.905Z,59
2023-02-17T10:23:24.391Z,63
2023-02-17T10:28:41.373Z,66
2023-02-17T10:33:58.362Z,68
2023-02-17T10:39:15.368Z,66
2023-02-17T10:44:31.631Z,76
2023-02-17T10:49:48.805Z,70
2023-02-17T10:55:20.986Z,70
2023-02-17T11:00:22.112Z,69
2023-02-17T11:05:38.861Z,72
2023-02-17T11:10:55.623Z,70
2023-02-17T11:16:14.267Z,67
2023-02-17T11:21:28.844Z,65
2023-02-17T11:26:45.021Z,67
2023-02-17T11:32:01.771Z,65
2023-02-17T11:37:18.602Z,64
2023-02-17T11:42:35.028Z,65
2023-02-17T11:47:52.117Z,68
2023-02-17T11:53:08.595Z,72
2023-02-17T11:58:25.228Z,77
2023-02-17T12:03:42.807Z,69
2023-02-17T12:08:59.248Z,76
2023-02-17T12:14:16.194Z,71
2023-02-17T12:19:34.873Z,68
2023-02-17T12:24:49.842Z,68
2023-02-17T12:30:06.659Z,66
2023-02-17T12:35:23.307Z,68
2023-02-17T12:40:39.464Z,69
2023-02-17T12:45:55.988Z,63
2023-02-17T12:51:12.683Z,67
2023-02-17T12:56:29.178Z,71
2023-02-17T13:01:45.699Z,76
2023-02-17T13:07:02.726Z,74
2023-02-17T13:12:19.479Z,68
2023-02-17T13:17:37.025Z,74
2023-02-17T13:22:53.687Z,69
2023-02-17T13:28:11.008Z,72
2023-02-17T13:33:27.632Z,77
2023-02-17T13:38:44.680Z,70
2023-02-17T13:44:01.677Z,77
2023-02-17T13:49:18.746Z,124
2023-02-17T13:54:35.625Z,72
2023-02-17T13:59:52.591Z,80
2023-02-17T14:05:08.869Z,79
2023-02-17T14:10:25.702Z,87
2023-02-17T14:15:41.937Z,86
2023-02-17T14:20:58.292Z,84
2023-02-17T14:26:15.281Z,92
2023-02-17T14:31:31.494Z,82
2023-02-17T14:36:47.896Z,85
2023-02-17T14:42:04.733Z,81
2023-02-17T14:47:21.542Z,84
2023-02-17T14:52:38.122Z,83
2023-02-17T14:57:55.308Z,102
2023-02-17T15:03:12.746Z,85
2023-02-17T15:08:29.396Z,87
2023-02-17T15:13:46.454Z,88
2023-02-17T15:19:03.904Z,88
2023-02-17T15:24:20.500Z,85
2023-02-17T15:29:37.518Z,85
2023-02-17T15:34:54.948Z,84
2023-02-17T15:40:11.473Z,84
2023-02-17T15:45:28.318Z,83
2023-02-17T15:50:46.467Z,82
2023-02-17T15:56:03.284Z,80
2023-02-17T16:01:19.616Z,84
2023-02-17T16:06:36.649Z,79
2023-02-17T16:11:53.432Z,86
2023-02-17T16:17:10.654Z,84
2023-02-17T16:22:27.376Z,84
2023-02-17T16:27:44.241Z,88
2023-02-17T16:33:01.087Z,85
2023-02-17T16:38:17.901Z,85
2023-02-17T16:43:34.837Z,83
2023-02-17T16:48:51.806Z,85
2023-02-17T16:54:08.166Z,78
2023-02-17T16:59:25.131Z,88
2023-02-17T17:04:42.250Z,80
2023-02-17T17:10:15.220Z,80
2023-02-17T17:15:16.293Z,84
2023-02-17T17:20:34.132Z,84
2023-02-17T17:25:51.647Z,79
2023-02-17T17:31:08.430Z,84
2023-02-17T17:36:25.587Z,80
2023-02-17T17:41:42.510Z,84
2023-02-17T17:46:59.584Z,87
2023-02-17T17:52:16.443Z,86
2023-02-17T17:57:33.201Z,74
2023-02-17T18:02:49.657Z,73
2023-02-17T18:08:06.494Z,78
2023-02-17T18:13:22.918Z,80
2023-02-17T18:18:40.468Z,82
2023-02-17T18:23:57.269Z,76
2023-02-17T18:29:14.052Z,73
2023-02-17T18:34:30.553Z,81
2023-02-17T18:39:46.799Z,80
2023-02-17T18:45:03.802Z,78
2023-02-17T18:50:20.831Z,78
2023-02-17T18:55:38.058Z,79
2023-02-17T19:00:55.574Z,80
2023-02-17T19:06:11.783Z,78
2023-02-17T19:11:28.252Z,76
2023-02-17T19:16:44.595Z,78
2023-02-17T19:22:01.333Z,81
2023-02-17T19:27:17.558Z,74
2023-02-17T19:32:34.572Z,78
2023-02-17T19:37:50.745Z,71
2023-02-17T19:43:06.960Z,71
2023-02-17T19:48:23.961Z,74
2023-02-17T19:53:40.806Z,73
2023-02-17T19:58:57.788Z,82
2023-02-17T20:04:14.807Z,77
2023-02-17T20:09:31.555Z,74
2023-02-17T20:14:48.104Z,72
2023-02-17T20:20:05.041Z,78
2023-02-17T20:25:21.746Z,76
2023-02-17T20:30:38.115Z,78
2023-02-17T20:35:55.099Z,82
2023-02-17T20:41:11.873Z,83
2023-02-17T20:46:28.162Z,75
2023-02-17T20:51:44.704Z,77
2023-02-17T20:57:00.938Z,79
2023-02-17T21:02:17.584Z,80
2023-02-17T21:07:34.239Z,75
2023-02-17T21:12:50.808Z,80
2023-02-17T21:18:07.046Z,78
2023-02-17T21:23:23.796Z,83
2023-02-17T21:28:41.040Z,81
2023-02-17T21:33:57.616Z,86
2023-02-17T21:39:14.238Z,80
2023-02-17T21:44:31.023Z,80
2023-02-17T21:49:48.090Z,81
2023-02-17T21:55:04.562Z,84
2023-02-17T22:00:22.820Z,87
2023-02-17T22:05:39.356Z,83
2023-02-17T22:10:55.486Z,82
2023-02-17T22:16:13.030Z,86
2023-02-17T22:21:29.087Z,81
2023-02-17T22:26:45.836Z,83
2023-02-17T22:32:02.799Z,82
2023-02-17T22:37:19.223Z,86
2023-02-17T22:42:35.706Z,87
2023-02-17T22:47:52.759Z,88
2023-02-17T22:53:10.008Z,85
2023-02-17T22:58:26.204Z,81
2023-02-17T23:03:42.426Z,82
2023-02-17T23:08:58.759Z,85
2023-02-17T23:14:15.961Z,83
2023-02-17T23:19:33.019Z,88
2023-02-17T23:24:49.209Z,89
2023-02-17T23:30:06.126Z,83
2023-02-17T23:35:22.604Z,84
2023-02-17T23:40:39.511Z,84
2023-02-17T23:45:56.894Z,86
2023-02-17T23:51:13.866Z,86
2023-02-17T23:56:30.509Z,85
